sensor_id;sensor_type;location;lat;lon;timestamp;P1;durP1;ratioP1;P2;durP2;ratioP2
26191;SDS011;13935;55.672;37.764;2022-07-10T00:00:46;9.73;;;7.60;;
26191;SDS011;13935;55.672;37.764;2022-07-10T00:01:48;8.40;;;7.53;;
26191;SDS011;13935;55.672;37.764;2022-07-10T00:02:51;11.15;;;7.72;;
26191;SDS011;13935;55.672;37.764;2022-07-10T00:03:57;8.10;;;7.18;;
26191;SDS011;13935;55.672;37.764;2022-07-10T00:05:03;9.93;;;8.00;;
26191;SDS011;13935;55.672;37.764;2022-07-10T00:06:07;9.95;;;7.50;;
26191;SDS011;13935;55.672;37.764;2022-07-10T00:07:10;8.77;;;7.00;;
26191;SDS011;13935;55.672;37.764;2022-07-10T00:08:12;9.40;;;6.97;;
26191;SDS011;13935;55.672;37.764;2022-07-10T00:09:16;8.90;;;7.03;;
26191;SDS011;13935;55.672;37.764;2022-07-10T00:10:19;8.93;;;7.97;;
26191;SDS011;13935;55.672;37.764;2022-07-10T00:11:22;8.63;;;7.20;;
26191;SDS011;13935;55.672;37.764;2022-07-10T00:12:25;8.27;;;6.93;;
26191;SDS011;13935;55.672;37.764;2022-07-10T00:13:28;8.52;;;6.88;;
26191;SDS011;13935;55.672;37.764;2022-07-10T00:14:38;9.80;;;7.10;;
26191;SDS011;13935;55.672;37.764;2022-07-10T00:15:41;8.35;;;7.03;;
26191;SDS011;13935;55.672;37.764;2022-07-10T00:16:43;9.20;;;7.07;;
26191;SDS011;13935;55.672;37.764;2022-07-10T00:17:45;8.85;;;6.82;;
26191;SDS011;13935;55.672;37.764;2022-07-10T00:18:49;9.27;;;7.45;;
26191;SDS011;13935;55.672;37.764;2022-07-10T00:19:51;11.50;;;7.10;;
26191;SDS011;13935;55.672;37.764;2022-07-10T00:20:54;8.90;;;7.03;;
26191;SDS011;13935;55.672;37.764;2022-07-10T00:21:56;7.97;;;6.53;;
26191;SDS011;13935;55.672;37.764;2022-07-10T00:22:58;8.07;;;5.93;;
26191;SDS011;13935;55.672;37.764;2022-07-10T00:24:02;8.43;;;6.90;;
26191;SDS011;13935;55.672;37.764;2022-07-10T00:25:06;10.32;;;7.38;;
26191;SDS011;13935;55.672;37.764;2022-07-10T00:26:11;8.90;;;6.38;;
26191;SDS011;13935;55.672;37.764;2022-07-10T00:27:13;8.88;;;7.13;;
26191;SDS011;13935;55.672;37.764;2022-07-10T00:28:16;10.60;;;7.05;;
26191;SDS011;13935;55.672;37.764;2022-07-10T00:29:18;7.75;;;6.38;;
26191;SDS011;13935;55.672;37.764;2022-07-10T00:30:20;8.80;;;6.45;;
26191;SDS011;13935;55.672;37.764;2022-07-10T00:31:23;7.90;;;6.75;;
26191;SDS011;13935;55.672;37.764;2022-07-10T00:32:26;10.00;;;7.03;;
26191;SDS011;13935;55.672;37.764;2022-07-10T00:33:28;9.70;;;6.15;;
26191;SDS011;13935;55.672;37.764;2022-07-10T00:34:33;8.13;;;6.35;;
26191;SDS011;13935;55.672;37.764;2022-07-10T00:35:37;8.82;;;6.45;;
26191;SDS011;13935;55.672;37.764;2022-07-10T00:36:39;8.25;;;6.22;;
26191;SDS011;13935;55.672;37.764;2022-07-10T00:37:41;9.02;;;6.25;;
26191;SDS011;13935;55.672;37.764;2022-07-10T00:38:44;8.40;;;6.82;;
26191;SDS011;13935;55.672;37.764;2022-07-10T00:39:47;7.78;;;6.35;;
26191;SDS011;13935;55.672;37.764;2022-07-10T00:40:50;8.05;;;5.85;;
26191;SDS011;13935;55.672;37.764;2022-07-10T00:41:53;9.02;;;6.45;;
26191;SDS011;13935;55.672;37.764;2022-07-10T00:42:55;8.15;;;6.43;;
26191;SDS011;13935;55.672;37.764;2022-07-10T00:44:00;8.43;;;6.55;;
26191;SDS011;13935;55.672;37.764;2022-07-10T00:45:03;8.85;;;5.68;;
26191;SDS011;13935;55.672;37.764;2022-07-10T00:46:07;8.82;;;6.50;;
26191;SDS011;13935;55.672;37.764;2022-07-10T00:47:11;7.72;;;5.88;;
26191;SDS011;13935;55.672;37.764;2022-07-10T00:48:14;11.27;;;6.75;;
26191;SDS011;13935;55.672;37.764;2022-07-10T00:49:17;10.48;;;6.97;;
26191;SDS011;13935;55.672;37.764;2022-07-10T00:50:19;9.20;;;6.65;;
26191;SDS011;13935;55.672;37.764;2022-07-10T00:51:26;8.13;;;6.40;;
26191;SDS011;13935;55.672;37.764;2022-07-10T00:52:29;9.73;;;6.38;;
26191;SDS011;13935;55.672;37.764;2022-07-10T00:53:32;9.23;;;6.97;;
26191;SDS011;13935;55.672;37.764;2022-07-10T00:54:34;8.60;;;6.90;;
26191;SDS011;13935;55.672;37.764;2022-07-10T00:55:37;8.32;;;6.70;;
26191;SDS011;13935;55.672;37.764;2022-07-10T00:56:43;8.63;;;6.55;;
26191;SDS011;13935;55.672;37.764;2022-07-10T00:57:45;9.82;;;6.78;;
26191;SDS011;13935;55.672;37.764;2022-07-10T00:58:49;8.13;;;6.50;;
26191;SDS011;13935;55.672;37.764;2022-07-10T00:59:54;11.25;;;6.70;;
26191;SDS011;13935;55.672;37.764;2022-07-10T01:00:56;11.05;;;7.05;;
26191;SDS011;13935;55.672;37.764;2022-07-10T01:02:00;12.48;;;6.60;;
26191;SDS011;13935;55.672;37.764;2022-07-10T01:03:04;7.57;;;6.28;;
26191;SDS011;13935;55.672;37.764;2022-07-10T01:04:06;8.57;;;7.10;;
26191;SDS011;13935;55.672;37.764;2022-07-10T01:05:09;10.40;;;7.38;;
26191;SDS011;13935;55.672;37.764;2022-07-10T01:06:12;10.30;;;7.43;;
26191;SDS011;13935;55.672;37.764;2022-07-10T01:07:15;11.10;;;7.97;;
26191;SDS011;13935;55.672;37.764;2022-07-10T01:08:18;9.15;;;7.32;;
26191;SDS011;13935;55.672;37.764;2022-07-10T01:09:20;10.73;;;7.60;;
26191;SDS011;13935;55.672;37.764;2022-07-10T01:10:25;8.77;;;7.10;;
26191;SDS011;13935;55.672;37.764;2022-07-10T01:11:29;11.02;;;7.18;;
26191;SDS011;13935;55.672;37.764;2022-07-10T01:12:37;8.02;;;6.43;;
26191;SDS011;13935;55.672;37.764;2022-07-10T01:13:39;8.70;;;6.85;;
26191;SDS011;13935;55.672;37.764;2022-07-10T01:14:47;9.68;;;7.22;;
26191;SDS011;13935;55.672;37.764;2022-07-10T01:15:51;8.82;;;7.18;;
26191;SDS011;13935;55.672;37.764;2022-07-10T01:16:58;10.27;;;7.72;;
26191;SDS011;13935;55.672;37.764;2022-07-10T01:18:01;10.65;;;7.78;;
26191;SDS011;13935;55.672;37.764;2022-07-10T01:19:05;11.10;;;7.78;;
26191;SDS011;13935;55.672;37.764;2022-07-10T01:20:11;9.00;;;7.40;;
26191;SDS011;13935;55.672;37.764;2022-07-10T01:21:50;12.32;;;7.93;;
26191;SDS011;13935;55.672;37.764;2022-07-10T01:23:12;9.77;;;7.65;;
26191;SDS011;13935;55.672;37.764;2022-07-10T01:24:18;10.10;;;8.25;;
26191;SDS011;13935;55.672;37.764;2022-07-10T01:25:20;9.50;;;8.50;;
26191;SDS011;13935;55.672;37.764;2022-07-10T01:26:33;10.52;;;8.25;;
26191;SDS011;13935;55.672;37.764;2022-07-10T01:27:39;10.27;;;8.52;;
26191;SDS011;13935;55.672;37.764;2022-07-10T01:28:41;11.63;;;9.30;;
26191;SDS011;13935;55.672;37.764;2022-07-10T01:29:47;12.85;;;9.00;;
26191;SDS011;13935;55.672;37.764;2022-07-10T01:30:54;14.68;;;9.75;;
26191;SDS011;13935;55.672;37.764;2022-07-10T01:31:57;10.30;;;8.75;;
26191;SDS011;13935;55.672;37.764;2022-07-10T01:33:03;9.57;;;8.27;;
26191;SDS011;13935;55.672;37.764;2022-07-10T01:34:06;10.07;;;8.65;;
26191;SDS011;13935;55.672;37.764;2022-07-10T01:35:12;9.77;;;8.77;;
26191;SDS011;13935;55.672;37.764;2022-07-10T01:36:19;11.13;;;9.25;;
26191;SDS011;13935;55.672;37.764;2022-07-10T01:37:22;11.70;;;9.38;;
26191;SDS011;13935;55.672;37.764;2022-07-10T01:38:25;10.80;;;8.80;;
26191;SDS011;13935;55.672;37.764;2022-07-10T01:39:31;12.93;;;9.32;;
26191;SDS011;13935;55.672;37.764;2022-07-10T01:40:35;9.43;;;8.40;;
26191;SDS011;13935;55.672;37.764;2022-07-10T01:41:37;10.50;;;8.77;;
26191;SDS011;13935;55.672;37.764;2022-07-10T01:42:39;10.75;;;8.98;;
26191;SDS011;13935;55.672;37.764;2022-07-10T01:43:42;10.05;;;8.73;;
26191;SDS011;13935;55.672;37.764;2022-07-10T01:44:46;9.43;;;8.43;;
26191;SDS011;13935;55.672;37.764;2022-07-10T01:45:48;11.80;;;9.23;;
26191;SDS011;13935;55.672;37.764;2022-07-10T01:46:51;13.15;;;8.70;;
26191;SDS011;13935;55.672;37.764;2022-07-10T01:47:53;12.18;;;9.38;;
26191;SDS011;13935;55.672;37.764;2022-07-10T01:48:56;10.13;;;8.73;;
26191;SDS011;13935;55.672;37.764;2022-07-10T01:49:58;9.75;;;8.32;;
26191;SDS011;13935;55.672;37.764;2022-07-10T01:51:00;9.20;;;8.20;;
26191;SDS011;13935;55.672;37.764;2022-07-10T01:52:03;9.70;;;8.70;;
26191;SDS011;13935;55.672;37.764;2022-07-10T01:53:06;9.93;;;8.50;;
26191;SDS011;13935;55.672;37.764;2022-07-10T01:54:08;10.55;;;8.88;;
26191;SDS011;13935;55.672;37.764;2022-07-10T01:55:11;11.63;;;9.65;;
26191;SDS011;13935;55.672;37.764;2022-07-10T01:56:15;10.75;;;8.63;;
26191;SDS011;13935;55.672;37.764;2022-07-10T01:57:17;9.55;;;8.38;;
26191;SDS011;13935;55.672;37.764;2022-07-10T01:58:20;11.63;;;9.48;;
26191;SDS011;13935;55.672;37.764;2022-07-10T01:59:22;11.13;;;8.43;;
26191;SDS011;13935;55.672;37.764;2022-07-10T02:00:27;11.18;;;8.05;;
26191;SDS011;13935;55.672;37.764;2022-07-10T02:01:30;9.23;;;7.95;;
26191;SDS011;13935;55.672;37.764;2022-07-10T02:02:34;9.43;;;8.32;;
26191;SDS011;13935;55.672;37.764;2022-07-10T02:03:40;11.60;;;8.50;;
26191;SDS011;13935;55.672;37.764;2022-07-10T02:05:00;13.23;;;9.10;;
26191;SDS011;13935;55.672;37.764;2022-07-10T02:06:03;12.25;;;8.45;;
26191;SDS011;13935;55.672;37.764;2022-07-10T02:07:05;14.93;;;9.70;;
26191;SDS011;13935;55.672;37.764;2022-07-10T02:08:07;12.68;;;9.20;;
26191;SDS011;13935;55.672;37.764;2022-07-10T02:09:10;14.00;;;9.75;;
26191;SDS011;13935;55.672;37.764;2022-07-10T02:10:17;14.02;;;9.90;;
26191;SDS011;13935;55.672;37.764;2022-07-10T02:11:19;12.25;;;10.05;;
26191;SDS011;13935;55.672;37.764;2022-07-10T02:12:21;17.17;;;10.68;;
26191;SDS011;13935;55.672;37.764;2022-07-10T02:13:24;14.98;;;10.82;;
26191;SDS011;13935;55.672;37.764;2022-07-10T02:14:30;14.07;;;10.75;;
26191;SDS011;13935;55.672;37.764;2022-07-10T02:15:32;15.77;;;10.80;;
26191;SDS011;13935;55.672;37.764;2022-07-10T02:16:34;17.13;;;10.75;;
26191;SDS011;13935;55.672;37.764;2022-07-10T02:17:37;16.30;;;11.13;;
26191;SDS011;13935;55.672;37.764;2022-07-10T02:18:39;21.00;;;11.88;;
26191;SDS011;13935;55.672;37.764;2022-07-10T02:19:43;23.40;;;11.88;;
26191;SDS011;13935;55.672;37.764;2022-07-10T02:20:45;16.30;;;12.15;;
26191;SDS011;13935;55.672;37.764;2022-07-10T02:21:48;20.33;;;13.30;;
26191;SDS011;13935;55.672;37.764;2022-07-10T02:22:50;16.35;;;13.48;;
26191;SDS011;13935;55.672;37.764;2022-07-10T02:23:53;21.65;;;14.90;;
26191;SDS011;13935;55.672;37.764;2022-07-10T02:24:55;25.00;;;19.23;;
26191;SDS011;13935;55.672;37.764;2022-07-10T02:25:57;23.42;;;17.77;;
26191;SDS011;13935;55.672;37.764;2022-07-10T02:26:59;29.30;;;20.35;;
26191;SDS011;13935;55.672;37.764;2022-07-10T02:28:01;27.38;;;19.65;;
26191;SDS011;13935;55.672;37.764;2022-07-10T02:29:04;32.00;;;21.92;;
26191;SDS011;13935;55.672;37.764;2022-07-10T02:30:06;29.42;;;20.98;;
26191;SDS011;13935;55.672;37.764;2022-07-10T02:31:09;31.52;;;22.35;;
26191;SDS011;13935;55.672;37.764;2022-07-10T02:32:11;27.08;;;20.88;;
26191;SDS011;13935;55.672;37.764;2022-07-10T02:33:14;30.73;;;21.33;;
26191;SDS011;13935;55.672;37.764;2022-07-10T02:34:16;31.67;;;22.45;;
26191;SDS011;13935;55.672;37.764;2022-07-10T02:35:19;32.88;;;23.00;;
26191;SDS011;13935;55.672;37.764;2022-07-10T02:36:22;31.65;;;22.42;;
26191;SDS011;13935;55.672;37.764;2022-07-10T02:37:24;28.40;;;22.33;;
26191;SDS011;13935;55.672;37.764;2022-07-10T02:38:27;32.67;;;22.50;;
26191;SDS011;13935;55.672;37.764;2022-07-10T02:39:30;25.13;;;20.10;;
26191;SDS011;13935;55.672;37.764;2022-07-10T02:40:32;28.80;;;20.20;;
26191;SDS011;13935;55.672;37.764;2022-07-10T02:41:34;25.95;;;18.75;;
26191;SDS011;13935;55.672;37.764;2022-07-10T02:42:39;24.17;;;16.52;;
26191;SDS011;13935;55.672;37.764;2022-07-10T02:43:42;24.25;;;16.40;;
26191;SDS011;13935;55.672;37.764;2022-07-10T02:44:44;20.42;;;16.15;;
26191;SDS011;13935;55.672;37.764;2022-07-10T02:45:48;21.92;;;15.30;;
26191;SDS011;13935;55.672;37.764;2022-07-10T02:46:50;20.30;;;14.82;;
26191;SDS011;13935;55.672;37.764;2022-07-10T02:47:53;21.45;;;13.43;;
26191;SDS011;13935;55.672;37.764;2022-07-10T02:48:55;19.65;;;13.85;;
26191;SDS011;13935;55.672;37.764;2022-07-10T02:50:01;18.23;;;12.25;;
26191;SDS011;13935;55.672;37.764;2022-07-10T02:51:06;15.38;;;11.07;;
26191;SDS011;13935;55.672;37.764;2022-07-10T02:52:08;13.50;;;10.15;;
26191;SDS011;13935;55.672;37.764;2022-07-10T02:53:11;13.20;;;9.82;;
26191;SDS011;13935;55.672;37.764;2022-07-10T02:54:13;20.23;;;9.93;;
26191;SDS011;13935;55.672;37.764;2022-07-10T02:55:16;12.48;;;9.95;;
26191;SDS011;13935;55.672;37.764;2022-07-10T02:56:18;16.80;;;10.68;;
26191;SDS011;13935;55.672;37.764;2022-07-10T02:57:20;11.52;;;9.55;;
26191;SDS011;13935;55.672;37.764;2022-07-10T02:58:23;13.93;;;9.93;;
26191;SDS011;13935;55.672;37.764;2022-07-10T02:59:25;11.02;;;9.27;;
26191;SDS011;13935;55.672;37.764;2022-07-10T03:00:28;14.60;;;10.18;;
26191;SDS011;13935;55.672;37.764;2022-07-10T03:01:30;13.43;;;8.85;;
26191;SDS011;13935;55.672;37.764;2022-07-10T03:02:33;15.63;;;10.07;;
26191;SDS011;13935;55.672;37.764;2022-07-10T03:03:35;11.60;;;9.50;;
26191;SDS011;13935;55.672;37.764;2022-07-10T03:04:37;12.95;;;9.90;;
26191;SDS011;13935;55.672;37.764;2022-07-10T03:05:40;12.25;;;9.40;;
26191;SDS011;13935;55.672;37.764;2022-07-10T03:06:42;13.80;;;10.10;;
26191;SDS011;13935;55.672;37.764;2022-07-10T03:07:45;12.85;;;9.98;;
26191;SDS011;13935;55.672;37.764;2022-07-10T03:08:47;13.32;;;9.63;;
26191;SDS011;13935;55.672;37.764;2022-07-10T03:09:49;12.20;;;10.23;;
26191;SDS011;13935;55.672;37.764;2022-07-10T03:10:51;11.77;;;10.45;;
26191;SDS011;13935;55.672;37.764;2022-07-10T03:12:01;14.73;;;11.35;;
26191;SDS011;13935;55.672;37.764;2022-07-10T03:13:11;13.63;;;10.40;;
26191;SDS011;13935;55.672;37.764;2022-07-10T03:14:13;12.73;;;10.45;;
26191;SDS011;13935;55.672;37.764;2022-07-10T03:15:18;14.13;;;10.50;;
26191;SDS011;13935;55.672;37.764;2022-07-10T03:16:23;11.70;;;9.43;;
26191;SDS011;13935;55.672;37.764;2022-07-10T03:17:25;11.75;;;10.35;;
26191;SDS011;13935;55.672;37.764;2022-07-10T03:18:28;12.75;;;10.02;;
26191;SDS011;13935;55.672;37.764;2022-07-10T03:19:30;12.80;;;10.30;;
26191;SDS011;13935;55.672;37.764;2022-07-10T03:20:32;11.25;;;10.02;;
26191;SDS011;13935;55.672;37.764;2022-07-10T03:21:34;13.90;;;10.07;;
26191;SDS011;13935;55.672;37.764;2022-07-10T03:22:37;11.07;;;9.73;;
26191;SDS011;13935;55.672;37.764;2022-07-10T03:23:40;12.55;;;10.25;;
26191;SDS011;13935;55.672;37.764;2022-07-10T03:24:42;13.90;;;10.50;;
26191;SDS011;13935;55.672;37.764;2022-07-10T03:25:48;15.73;;;10.45;;
26191;SDS011;13935;55.672;37.764;2022-07-10T03:26:55;14.13;;;9.57;;
26191;SDS011;13935;55.672;37.764;2022-07-10T03:27:58;12.85;;;9.68;;
26191;SDS011;13935;55.672;37.764;2022-07-10T03:29:00;11.73;;;9.45;;
26191;SDS011;13935;55.672;37.764;2022-07-10T03:30:03;17.20;;;9.93;;
26191;SDS011;13935;55.672;37.764;2022-07-10T03:31:05;10.98;;;9.00;;
26191;SDS011;13935;55.672;37.764;2022-07-10T03:32:07;10.75;;;8.77;;
26191;SDS011;13935;55.672;37.764;2022-07-10T03:33:10;13.48;;;9.10;;
26191;SDS011;13935;55.672;37.764;2022-07-10T03:34:12;12.27;;;9.68;;
26191;SDS011;13935;55.672;37.764;2022-07-10T03:35:14;11.70;;;9.48;;
26191;SDS011;13935;55.672;37.764;2022-07-10T03:36:16;12.82;;;9.45;;
26191;SDS011;13935;55.672;37.764;2022-07-10T03:37:19;12.73;;;10.13;;
26191;SDS011;13935;55.672;37.764;2022-07-10T03:38:21;12.18;;;9.43;;
26191;SDS011;13935;55.672;37.764;2022-07-10T03:39:23;10.93;;;9.27;;
26191;SDS011;13935;55.672;37.764;2022-07-10T03:40:25;11.52;;;8.90;;
26191;SDS011;13935;55.672;37.764;2022-07-10T03:41:28;10.27;;;8.27;;
26191;SDS011;13935;55.672;37.764;2022-07-10T03:42:31;13.30;;;8.48;;
26191;SDS011;13935;55.672;37.764;2022-07-10T03:43:33;11.52;;;8.02;;
26191;SDS011;13935;55.672;37.764;2022-07-10T03:44:35;11.65;;;8.50;;
26191;SDS011;13935;55.672;37.764;2022-07-10T03:45:37;10.88;;;8.30;;
26191;SDS011;13935;55.672;37.764;2022-07-10T03:46:39;12.15;;;10.05;;
26191;SDS011;13935;55.672;37.764;2022-07-10T03:47:41;12.07;;;9.07;;
26191;SDS011;13935;55.672;37.764;2022-07-10T03:48:44;12.35;;;9.27;;
26191;SDS011;13935;55.672;37.764;2022-07-10T03:49:46;11.52;;;9.20;;
26191;SDS011;13935;55.672;37.764;2022-07-10T03:50:51;12.93;;;9.23;;
26191;SDS011;13935;55.672;37.764;2022-07-10T03:51:59;11.05;;;9.18;;
26191;SDS011;13935;55.672;37.764;2022-07-10T03:53:02;13.52;;;9.73;;
26191;SDS011;13935;55.672;37.764;2022-07-10T03:54:05;11.23;;;9.35;;
26191;SDS011;13935;55.672;37.764;2022-07-10T03:55:07;17.70;;;10.35;;
26191;SDS011;13935;55.672;37.764;2022-07-10T03:56:11;14.07;;;10.20;;
26191;SDS011;13935;55.672;37.764;2022-07-10T03:57:35;11.02;;;9.60;;
26191;SDS011;13935;55.672;37.764;2022-07-10T03:58:56;12.85;;;10.30;;
26191;SDS011;13935;55.672;37.764;2022-07-10T04:00:00;12.30;;;10.68;;
26191;SDS011;13935;55.672;37.764;2022-07-10T04:01:12;14.82;;;10.80;;
26191;SDS011;13935;55.672;37.764;2022-07-10T04:02:16;14.27;;;10.05;;
26191;SDS011;13935;55.672;37.764;2022-07-10T04:03:19;12.25;;;10.13;;
26191;SDS011;13935;55.672;37.764;2022-07-10T04:04:22;11.43;;;10.23;;
26191;SDS011;13935;55.672;37.764;2022-07-10T04:05:24;12.60;;;10.00;;
26191;SDS011;13935;55.672;37.764;2022-07-10T04:06:28;13.52;;;9.85;;
26191;SDS011;13935;55.672;37.764;2022-07-10T04:07:30;12.73;;;10.10;;
26191;SDS011;13935;55.672;37.764;2022-07-10T04:08:32;12.05;;;9.57;;
26191;SDS011;13935;55.672;37.764;2022-07-10T04:09:35;12.00;;;10.35;;
26191;SDS011;13935;55.672;37.764;2022-07-10T04:10:37;17.20;;;10.52;;
26191;SDS011;13935;55.672;37.764;2022-07-10T04:11:39;16.05;;;10.68;;
26191;SDS011;13935;55.672;37.764;2022-07-10T04:12:41;16.65;;;12.23;;
26191;SDS011;13935;55.672;37.764;2022-07-10T04:13:43;14.80;;;12.30;;
26191;SDS011;13935;55.672;37.764;2022-07-10T04:14:45;17.67;;;12.45;;
26191;SDS011;13935;55.672;37.764;2022-07-10T04:15:49;16.85;;;12.35;;
26191;SDS011;13935;55.672;37.764;2022-07-10T04:16:53;29.15;;;13.48;;
26191;SDS011;13935;55.672;37.764;2022-07-10T04:17:55;18.88;;;11.93;;
26191;SDS011;13935;55.672;37.764;2022-07-10T04:18:57;14.35;;;12.85;;
26191;SDS011;13935;55.672;37.764;2022-07-10T04:20:00;15.07;;;12.95;;
26191;SDS011;13935;55.672;37.764;2022-07-10T04:21:03;15.30;;;12.52;;
26191;SDS011;13935;55.672;37.764;2022-07-10T04:22:05;16.23;;;12.30;;
26191;SDS011;13935;55.672;37.764;2022-07-10T04:23:08;14.15;;;12.32;;
26191;SDS011;13935;55.672;37.764;2022-07-10T04:24:10;15.02;;;12.63;;
26191;SDS011;13935;55.672;37.764;2022-07-10T04:25:14;15.65;;;12.43;;
26191;SDS011;13935;55.672;37.764;2022-07-10T04:26:19;15.00;;;12.73;;
26191;SDS011;13935;55.672;37.764;2022-07-10T04:27:23;15.43;;;12.63;;
26191;SDS011;13935;55.672;37.764;2022-07-10T04:28:25;15.57;;;12.38;;
26191;SDS011;13935;55.672;37.764;2022-07-10T04:29:28;15.80;;;12.65;;
26191;SDS011;13935;55.672;37.764;2022-07-10T04:30:30;16.02;;;12.98;;
26191;SDS011;13935;55.672;37.764;2022-07-10T04:31:32;20.02;;;13.48;;
26191;SDS011;13935;55.672;37.764;2022-07-10T04:32:37;16.67;;;12.88;;
26191;SDS011;13935;55.672;37.764;2022-07-10T04:33:41;15.30;;;12.93;;
26191;SDS011;13935;55.672;37.764;2022-07-10T04:34:44;17.38;;;13.48;;
26191;SDS011;13935;55.672;37.764;2022-07-10T04:35:46;17.42;;;14.10;;
26191;SDS011;13935;55.672;37.764;2022-07-10T04:36:48;18.95;;;14.00;;
26191;SDS011;13935;55.672;37.764;2022-07-10T04:37:50;16.35;;;12.55;;
26191;SDS011;13935;55.672;37.764;2022-07-10T04:38:53;16.02;;;13.40;;
26191;SDS011;13935;55.672;37.764;2022-07-10T04:39:56;17.08;;;13.68;;
26191;SDS011;13935;55.672;37.764;2022-07-10T04:41:00;16.80;;;13.38;;
26191;SDS011;13935;55.672;37.764;2022-07-10T04:42:02;16.08;;;12.63;;
26191;SDS011;13935;55.672;37.764;2022-07-10T04:43:05;17.20;;;13.82;;
26191;SDS011;13935;55.672;37.764;2022-07-10T04:44:07;16.15;;;12.68;;
26191;SDS011;13935;55.672;37.764;2022-07-10T04:45:09;16.55;;;13.10;;
26191;SDS011;13935;55.672;37.764;2022-07-10T04:46:12;16.88;;;12.35;;
26191;SDS011;13935;55.672;37.764;2022-07-10T04:47:14;17.67;;;14.98;;
26191;SDS011;13935;55.672;37.764;2022-07-10T04:48:18;17.33;;;12.77;;
26191;SDS011;13935;55.672;37.764;2022-07-10T04:49:20;16.15;;;12.43;;
26191;SDS011;13935;55.672;37.764;2022-07-10T04:50:23;15.45;;;11.98;;
26191;SDS011;13935;55.672;37.764;2022-07-10T04:51:26;14.75;;;12.05;;
26191;SDS011;13935;55.672;37.764;2022-07-10T04:52:28;16.17;;;12.73;;
26191;SDS011;13935;55.672;37.764;2022-07-10T04:53:30;16.83;;;12.13;;
26191;SDS011;13935;55.672;37.764;2022-07-10T04:54:32;16.42;;;12.63;;
26191;SDS011;13935;55.672;37.764;2022-07-10T04:55:35;14.35;;;12.52;;
26191;SDS011;13935;55.672;37.764;2022-07-10T04:56:37;14.13;;;12.60;;
26191;SDS011;13935;55.672;37.764;2022-07-10T04:57:39;16.55;;;12.85;;
26191;SDS011;13935;55.672;37.764;2022-07-10T04:58:46;18.35;;;12.40;;
26191;SDS011;13935;55.672;37.764;2022-07-10T04:59:53;15.80;;;12.63;;
26191;SDS011;13935;55.672;37.764;2022-07-10T05:00:56;18.20;;;13.68;;
26191;SDS011;13935;55.672;37.764;2022-07-10T05:01:58;15.10;;;13.48;;
26191;SDS011;13935;55.672;37.764;2022-07-10T05:03:10;16.48;;;12.80;;
26191;SDS011;13935;55.672;37.764;2022-07-10T05:04:12;18.88;;;13.75;;
26191;SDS011;13935;55.672;37.764;2022-07-10T05:05:14;15.43;;;13.57;;
26191;SDS011;13935;55.672;37.764;2022-07-10T05:06:16;17.15;;;14.23;;
26191;SDS011;13935;55.672;37.764;2022-07-10T05:07:19;17.77;;;14.02;;
26191;SDS011;13935;55.672;37.764;2022-07-10T05:08:21;21.77;;;14.50;;
26191;SDS011;13935;55.672;37.764;2022-07-10T05:09:23;17.60;;;13.68;;
26191;SDS011;13935;55.672;37.764;2022-07-10T05:10:27;16.65;;;13.70;;
26191;SDS011;13935;55.672;37.764;2022-07-10T05:11:30;16.48;;;13.35;;
26191;SDS011;13935;55.672;37.764;2022-07-10T05:12:33;20.42;;;14.13;;
26191;SDS011;13935;55.672;37.764;2022-07-10T05:13:35;15.88;;;13.23;;
26191;SDS011;13935;55.672;37.764;2022-07-10T05:14:38;17.38;;;13.57;;
26191;SDS011;13935;55.672;37.764;2022-07-10T05:15:40;16.30;;;13.50;;
26191;SDS011;13935;55.672;37.764;2022-07-10T05:16:42;15.20;;;13.70;;
26191;SDS011;13935;55.672;37.764;2022-07-10T05:17:44;16.77;;;13.45;;
26191;SDS011;13935;55.672;37.764;2022-07-10T05:18:47;15.70;;;13.82;;
26191;SDS011;13935;55.672;37.764;2022-07-10T05:19:49;15.95;;;13.57;;
26191;SDS011;13935;55.672;37.764;2022-07-10T05:20:53;16.13;;;13.07;;
26191;SDS011;13935;55.672;37.764;2022-07-10T05:21:55;15.98;;;13.05;;
26191;SDS011;13935;55.672;37.764;2022-07-10T05:22:58;15.52;;;13.27;;
26191;SDS011;13935;55.672;37.764;2022-07-10T05:24:01;17.38;;;13.63;;
26191;SDS011;13935;55.672;37.764;2022-07-10T05:25:03;15.05;;;13.32;;
26191;SDS011;13935;55.672;37.764;2022-07-10T05:26:06;14.27;;;12.77;;
26191;SDS011;13935;55.672;37.764;2022-07-10T05:27:08;18.65;;;14.18;;
26191;SDS011;13935;55.672;37.764;2022-07-10T05:28:10;16.23;;;13.90;;
26191;SDS011;13935;55.672;37.764;2022-07-10T05:29:15;18.67;;;15.02;;
26191;SDS011;13935;55.672;37.764;2022-07-10T05:30:18;17.08;;;14.45;;
26191;SDS011;13935;55.672;37.764;2022-07-10T05:31:20;17.92;;;14.80;;
26191;SDS011;13935;55.672;37.764;2022-07-10T05:32:22;16.35;;;14.57;;
26191;SDS011;13935;55.672;37.764;2022-07-10T05:33:27;19.65;;;14.70;;
26191;SDS011;13935;55.672;37.764;2022-07-10T05:34:30;19.23;;;14.75;;
26191;SDS011;13935;55.672;37.764;2022-07-10T05:35:32;21.42;;;14.43;;
26191;SDS011;13935;55.672;37.764;2022-07-10T05:36:35;18.35;;;14.25;;
26191;SDS011;13935;55.672;37.764;2022-07-10T05:37:44;16.33;;;13.85;;
26191;SDS011;13935;55.672;37.764;2022-07-10T05:38:46;16.38;;;13.70;;
26191;SDS011;13935;55.672;37.764;2022-07-10T05:39:48;15.55;;;13.65;;
26191;SDS011;13935;55.672;37.764;2022-07-10T05:40:51;15.35;;;13.75;;
26191;SDS011;13935;55.672;37.764;2022-07-10T05:41:55;15.25;;;13.70;;
26191;SDS011;13935;55.672;37.764;2022-07-10T05:42:59;15.65;;;13.40;;
26191;SDS011;13935;55.672;37.764;2022-07-10T05:44:04;18.83;;;14.43;;
26191;SDS011;13935;55.672;37.764;2022-07-10T05:45:08;15.90;;;14.05;;
26191;SDS011;13935;55.672;37.764;2022-07-10T05:46:10;15.30;;;13.70;;
26191;SDS011;13935;55.672;37.764;2022-07-10T05:47:14;17.98;;;13.10;;
26191;SDS011;13935;55.672;37.764;2022-07-10T05:48:16;15.90;;;14.13;;
26191;SDS011;13935;55.672;37.764;2022-07-10T05:49:18;14.55;;;12.90;;
26191;SDS011;13935;55.672;37.764;2022-07-10T05:50:21;14.45;;;13.05;;
26191;SDS011;13935;55.672;37.764;2022-07-10T05:51:23;14.07;;;12.68;;
26191;SDS011;13935;55.672;37.764;2022-07-10T05:52:39;14.25;;;12.55;;
26191;SDS011;13935;55.672;37.764;2022-07-10T05:53:42;15.00;;;13.50;;
26191;SDS011;13935;55.672;37.764;2022-07-10T05:54:44;14.57;;;12.82;;
26191;SDS011;13935;55.672;37.764;2022-07-10T05:55:46;15.32;;;13.20;;
26191;SDS011;13935;55.672;37.764;2022-07-10T05:56:49;14.00;;;12.63;;
26191;SDS011;13935;55.672;37.764;2022-07-10T05:57:52;13.52;;;12.23;;
26191;SDS011;13935;55.672;37.764;2022-07-10T05:58:56;14.23;;;12.77;;
26191;SDS011;13935;55.672;37.764;2022-07-10T05:59:58;14.50;;;12.98;;
26191;SDS011;13935;55.672;37.764;2022-07-10T06:01:01;14.30;;;12.80;;
26191;SDS011;13935;55.672;37.764;2022-07-10T06:02:03;15.45;;;12.10;;
26191;SDS011;13935;55.672;37.764;2022-07-10T06:03:06;14.27;;;12.85;;
26191;SDS011;13935;55.672;37.764;2022-07-10T06:04:08;14.73;;;12.63;;
26191;SDS011;13935;55.672;37.764;2022-07-10T06:05:11;14.40;;;12.98;;
26191;SDS011;13935;55.672;37.764;2022-07-10T06:06:13;13.57;;;12.23;;
26191;SDS011;13935;55.672;37.764;2022-07-10T06:07:17;14.90;;;13.43;;
26191;SDS011;13935;55.672;37.764;2022-07-10T06:08:19;14.52;;;12.80;;
26191;SDS011;13935;55.672;37.764;2022-07-10T06:09:22;14.57;;;13.07;;
26191;SDS011;13935;55.672;37.764;2022-07-10T06:10:24;15.90;;;14.27;;